createdAt,value
2018-11-13T00:00:02.223Z,1020.59
2018-11-13T00:01:02.020Z,1020.57
2018-11-13T00:02:02.136Z,1020.51
2018-11-13T00:03:02.857Z,1020.61
2018-11-13T00:04:02.250Z,1020.65
2018-11-13T00:05:01.951Z,1020.71
2018-11-13T00:06:02.263Z,1020.65
2018-11-13T00:07:02.010Z,1020.68
2018-11-13T00:08:01.974Z,1020.66
2018-11-13T00:09:02.264Z,1020.77
2018-11-13T00:10:02.021Z,1020.82
2018-11-13T00:11:02.061Z,1020.92
2018-11-13T00:12:02.156Z,1021.02
2018-11-13T00:13:02.048Z,1020.92
2018-11-13T00:14:01.901Z,1020.85
2018-11-13T00:15:02.216Z,1020.81
2018-11-13T00:16:01.998Z,1020.85
2018-11-13T00:17:02.136Z,1020.86
2018-11-13T00:18:02.086Z,1020.96
2018-11-13T00:19:01.993Z,1020.97
2018-11-13T00:20:02.242Z,1021.01
2018-11-13T00:21:02.258Z,1021.03
2018-11-13T00:22:01.872Z,1020.9
2018-11-13T00:23:02.046Z,1020.85
2018-11-13T00:24:02.008Z,1020.78
2018-11-13T00:25:01.848Z,1020.69
2018-11-13T00:26:02.093Z,1020.73
2018-11-13T00:27:01.973Z,1020.79
2018-11-13T00:28:01.944Z,1020.96
2018-11-13T00:29:02.111Z,1021.1
2018-11-13T00:30:01.873Z,1021.11
2018-11-13T00:31:01.987Z,1021.1
2018-11-13T00:32:02.037Z,1021.08
2018-11-13T00:33:01.863Z,1021.1
2018-11-13T00:34:01.921Z,1021.15
2018-11-13T00:35:01.925Z,1021.21
2018-11-13T00:36:01.959Z,1021.24
2018-11-13T00:37:02.007Z,1021.26
2018-11-13T00:38:01.942Z,1021.19
2018-11-13T00:39:02.043Z,1021.24
2018-11-13T00:40:01.870Z,1021.22
2018-11-13T00:41:01.860Z,1021.18
2018-11-13T00:42:01.842Z,1021.09
2018-11-13T00:43:02.008Z,1021.07
2018-11-13T00:44:01.853Z,1021.06
2018-11-13T00:45:02.036Z,1021.16
2018-11-13T00:46:02.141Z,1021.18
2018-11-13T00:47:01.839Z,1021.21
2018-11-13T00:48:01.880Z,1021.2
2018-11-13T00:49:02.888Z,1021.3
2018-11-13T00:50:02.147Z,1021.35
2018-11-13T00:51:02.054Z,1021.45
2018-11-13T00:52:02.162Z,1021.48
2018-11-13T00:53:02.371Z,1021.56
2018-11-13T00:54:01.945Z,1021.52
2018-11-13T00:55:03.282Z,1021.51
2018-11-13T00:56:01.984Z,1021.49
2018-11-13T00:57:02.113Z,1021.44
2018-11-13T00:58:01.870Z,1021.38
2018-11-13T00:59:01.904Z,1021.41
2018-11-13T01:00:02.223Z,1021.41
2018-11-13T01:01:02.229Z,1021.4
2018-11-13T01:02:02.068Z,1021.38
2018-11-13T01:03:01.961Z,1021.37
2018-11-13T01:04:01.956Z,1021.32
2018-11-13T01:05:02.422Z,1021.27
2018-11-13T01:06:01.964Z,1021.36
2018-11-13T01:07:01.843Z,1021.4
2018-11-13T01:08:02.074Z,1021.46
2018-11-13T01:09:01.842Z,1021.49
2018-11-13T01:10:01.958Z,1021.54
2018-11-13T01:11:01.824Z,1021.57
2018-11-13T01:12:02.099Z,1021.6
2018-11-13T01:13:01.951Z,1021.69
2018-11-13T01:14:01.881Z,1021.71
2018-11-13T01:15:02.138Z,1021.69
2018-11-13T01:16:01.817Z,1021.71
2018-11-13T01:17:02.137Z,1021.69
2018-11-13T01:18:02.441Z,1021.72
2018-11-13T01:19:02.680Z,1021.73
2018-11-13T01:20:01.982Z,1021.72
2018-11-13T01:21:02.162Z,1021.8
2018-11-13T01:22:01.872Z,1021.76
2018-11-13T01:23:02.091Z,1021.68
2018-11-13T01:24:02.987Z,1021.67
2018-11-13T01:25:02.088Z,1021.59
2018-11-13T01:26:02.251Z,1021.6
2018-11-13T01:27:02.273Z,1021.55
2018-11-13T01:28:01.827Z,1021.6
2018-11-13T01:29:02.029Z,1021.69
2018-11-13T01:30:02.619Z,1021.73
2018-11-13T01:31:01.914Z,1021.7
2018-11-13T01:32:01.871Z,1021.69
2018-11-13T01:33:01.944Z,1021.67
2018-11-13T01:34:02.309Z,1021.64
2018-11-13T01:35:02.598Z,1021.63
2018-11-13T01:36:01.833Z,1021.6
2018-11-13T01:37:01.806Z,1021.62
2018-11-13T01:38:02.172Z,1021.69
2018-11-13T01:39:01.902Z,1021.8
2018-11-13T01:40:01.823Z,1021.86
2018-11-13T01:41:02.123Z,1021.9
2018-11-13T01:42:01.750Z,1021.94
2018-11-13T01:43:02.004Z,1021.89
2018-11-13T01:44:01.996Z,1021.82
2018-11-13T01:45:01.759Z,1021.81
2018-11-13T01:46:02.135Z,1021.84
2018-11-13T01:47:01.978Z,1021.93
2018-11-13T01:48:02.160Z,1022.03
2018-11-13T01:49:01.811Z,1022.04
2018-11-13T01:50:01.741Z,1021.94
2018-11-13T01:51:02.062Z,1021.84
2018-11-13T01:52:01.906Z,1021.76
2018-11-13T01:53:01.977Z,1021.73
2018-11-13T01:54:01.874Z,1021.68
2018-11-13T01:55:02.277Z,1021.68
2018-11-13T01:56:01.736Z,1021.62
2018-11-13T01:57:01.892Z,1021.53
2018-11-13T01:58:01.776Z,1021.56
2018-11-13T01:59:01.741Z,1021.52
2018-11-13T02:00:01.709Z,1021.44
2018-11-13T02:01:01.759Z,1021.41
2018-11-13T02:02:01.756Z,1021.42
2018-11-13T02:03:01.749Z,1021.4
2018-11-13T02:04:02.046Z,1021.39
2018-11-13T02:05:01.706Z,1021.34
2018-11-13T02:06:01.754Z,1021.36
2018-11-13T02:07:01.782Z,1021.32
2018-11-13T02:08:01.731Z,1021.44
2018-11-13T02:09:01.717Z,1021.58
2018-11-13T02:10:01.726Z,1021.75
2018-11-13T02:11:01.769Z,1021.93
2018-11-13T02:12:01.739Z,1022.01
2018-11-13T02:13:01.757Z,1022.13
2018-11-13T02:14:01.713Z,1022.18
2018-11-13T02:15:01.721Z,1022.16
2018-11-13T02:16:01.720Z,1022.05
2018-11-13T02:17:01.716Z,1022.04
2018-11-13T02:18:02.170Z,1022.04
2018-11-13T02:19:01.768Z,1022.13
2018-11-13T02:20:02.065Z,1022.19
2018-11-13T02:21:01.952Z,1022.23
2018-11-13T02:22:01.697Z,1022.23
2018-11-13T02:23:01.974Z,1022.09
2018-11-13T02:24:01.778Z,1022
2018-11-13T02:25:01.749Z,1021.88
2018-11-13T02:26:01.934Z,1021.82
2018-11-13T02:27:01.927Z,1021.79
2018-11-13T02:28:02.005Z,1021.81
2018-11-13T02:29:02.215Z,1021.81
2018-11-13T02:30:01.721Z,1021.86
2018-11-13T02:31:01.689Z,1021.91
2018-11-13T02:32:01.734Z,1021.99
2018-11-13T02:33:01.936Z,1022.12
2018-11-13T02:34:02.049Z,1022.17
2018-11-13T02:35:02.099Z,1022.17
2018-11-13T02:36:01.786Z,1022.25
2018-11-13T02:37:01.731Z,1022.22
2018-11-13T02:38:01.717Z,1022.26
2018-11-13T02:39:01.691Z,1022.26
2018-11-13T02:40:02.220Z,1022.22
2018-11-13T02:41:01.886Z,1022.23
2018-11-13T02:42:01.810Z,1022.16
2018-11-13T02:43:02.110Z,1022.17
2018-11-13T02:44:01.777Z,1022.14
2018-11-13T02:45:02.021Z,1022.13
2018-11-13T02:46:01.739Z,1022.15
2018-11-13T02:47:01.772Z,1022.12
2018-11-13T02:48:01.873Z,1022.06
2018-11-13T02:49:01.791Z,1022.14
2018-11-13T02:50:01.728Z,1022.13
2018-11-13T02:51:01.691Z,1022.21
2018-11-13T02:52:02.057Z,1022.26
2018-11-13T02:53:01.684Z,1022.35
2018-11-13T02:54:01.691Z,1022.4
2018-11-13T02:55:01.995Z,1022.45
2018-11-13T02:56:01.691Z,1022.5
2018-11-13T02:57:01.671Z,1022.52
2018-11-13T02:58:02.017Z,1022.55
2018-11-13T02:59:01.747Z,1022.57
2018-11-13T03:00:01.796Z,1022.59
2018-11-13T03:01:01.632Z,1022.66
2018-11-13T03:02:01.742Z,1022.75
2018-11-13T03:03:01.669Z,1022.77
2018-11-13T03:04:01.694Z,1022.76
2018-11-13T03:05:02.007Z,1022.77
2018-11-13T03:06:02.177Z,1022.72
2018-11-13T03:07:01.682Z,1022.68
2018-11-13T03:08:01.886Z,1022.62
2018-11-13T03:09:01.918Z,1022.53
2018-11-13T03:10:01.763Z,1022.52
2018-11-13T03:11:01.772Z,1022.44
2018-11-13T03:12:02.021Z,1022.45
2018-11-13T03:13:01.687Z,1022.49
2018-11-13T03:14:01.646Z,1022.46
2018-11-13T03:15:01.770Z,1022.48
2018-11-13T03:16:01.658Z,1022.49
2018-11-13T03:17:01.784Z,1022.54
2018-11-13T03:18:01.831Z,1022.55
2018-11-13T03:19:01.634Z,1022.59
2018-11-13T03:20:01.665Z,1022.51
2018-11-13T03:21:01.886Z,1022.57
2018-11-13T03:22:02.110Z,1022.58
2018-11-13T03:23:01.636Z,1022.6
2018-11-13T03:24:01.631Z,1022.62
2018-11-13T03:25:01.773Z,1022.63
2018-11-13T03:26:01.613Z,1022.7
2018-11-13T03:27:01.783Z,1022.68
2018-11-13T03:28:01.772Z,1022.77
2018-11-13T03:29:01.651Z,1022.79
2018-11-13T03:30:01.607Z,1022.87
2018-11-13T03:31:01.737Z,1022.86
2018-11-13T03:32:01.609Z,1022.88
2018-11-13T03:33:01.625Z,1022.86
2018-11-13T03:34:01.684Z,1022.86
2018-11-13T03:35:01.607Z,1022.84
2018-11-13T03:36:01.624Z,1022.82
2018-11-13T03:37:01.587Z,1022.89
2018-11-13T03:38:01.674Z,1022.86
2018-11-13T03:39:01.602Z,1022.92
2018-11-13T03:40:01.584Z,1022.96
2018-11-13T03:41:01.610Z,1022.93
2018-11-13T03:42:01.640Z,1022.88
2018-11-13T03:43:01.595Z,1022.83
2018-11-13T03:44:01.623Z,1022.83
2018-11-13T03:45:01.715Z,1022.79
2018-11-13T03:46:01.627Z,1022.76
2018-11-13T03:47:01.642Z,1022.75
2018-11-13T03:48:01.611Z,1022.71
2018-11-13T03:49:01.966Z,1022.72
2018-11-13T03:50:01.737Z,1022.78
2018-11-13T03:51:01.887Z,1022.8
2018-11-13T03:52:02.299Z,1022.77
2018-11-13T03:53:02.421Z,1022.74
2018-11-13T03:54:01.712Z,1022.76
2018-11-13T03:55:01.736Z,1022.64
2018-11-13T03:56:01.739Z,1022.66
2018-11-13T03:57:01.589Z,1022.69
2018-11-13T03:58:01.597Z,1022.8
2018-11-13T03:59:01.678Z,1022.84
2018-11-13T04:00:02.000Z,1022.9
2018-11-13T04:01:01.744Z,1022.94
2018-11-13T04:02:01.580Z,1022.97
2018-11-13T04:03:01.652Z,1023.01
2018-11-13T04:04:01.617Z,1023
2018-11-13T04:05:01.655Z,1022.94
2018-11-13T04:06:01.652Z,1022.9
2018-11-13T04:07:01.703Z,1022.8
2018-11-13T04:08:02.413Z,1022.84
2018-11-13T04:09:01.686Z,1022.9
2018-11-13T04:10:01.656Z,1022.99
2018-11-13T04:11:01.716Z,1023.08
2018-11-13T04:12:01.572Z,1023.11
2018-11-13T04:13:01.608Z,1023.13
2018-11-13T04:14:01.563Z,1023.12
2018-11-13T04:15:01.555Z,1023.13
2018-11-13T04:16:01.580Z,1023.07
2018-11-13T04:17:01.603Z,1023.08
2018-11-13T04:18:01.694Z,1023.09
2018-11-13T04:19:01.703Z,1023.12
2018-11-13T04:20:01.578Z,1023.18
2018-11-13T04:21:01.611Z,1023.22
2018-11-13T04:22:01.795Z,1023.27
2018-11-13T04:23:01.648Z,1023.29
2018-11-13T04:24:01.603Z,1023.32
2018-11-13T04:25:02.412Z,1023.38
2018-11-13T04:26:01.825Z,1023.37
2018-11-13T04:27:01.787Z,1023.41
2018-11-13T04:28:01.615Z,1023.43
2018-11-13T04:29:01.567Z,1023.43
2018-11-13T04:30:01.620Z,1023.41
2018-11-13T04:31:01.583Z,1023.44
2018-11-13T04:32:01.570Z,1023.41
2018-11-13T04:33:01.609Z,1023.4
2018-11-13T04:34:01.885Z,1023.38
2018-11-13T04:35:01.636Z,1023.41
2018-11-13T04:36:01.649Z,1023.48
2018-11-13T04:37:01.591Z,1023.49
2018-11-13T04:38:01.593Z,1023.56
2018-11-13T04:39:01.587Z,1023.54
2018-11-13T04:40:01.958Z,1023.55
2018-11-13T04:41:01.635Z,1023.56
2018-11-13T04:42:01.711Z,1023.55
2018-11-13T04:43:01.611Z,1023.49
2018-11-13T04:44:01.619Z,1023.5
2018-11-13T04:45:01.650Z,1023.47
2018-11-13T04:46:01.591Z,1023.36
2018-11-13T04:47:01.749Z,1023.39
2018-11-13T04:48:01.628Z,1023.43
2018-11-13T04:49:01.616Z,1023.45
2018-11-13T04:50:01.688Z,1023.45
2018-11-13T04:51:01.565Z,1023.47
2018-11-13T04:52:01.601Z,1023.48
2018-11-13T04:53:01.701Z,1023.55
2018-11-13T04:54:01.720Z,1023.58
2018-11-13T04:55:01.789Z,1023.59
2018-11-13T04:56:01.622Z,1023.59
2018-11-13T04:57:01.608Z,1023.57
2018-11-13T04:58:01.639Z,1023.59
2018-11-13T04:59:01.661Z,1023.61
2018-11-13T05:00:01.880Z,1023.55
2018-11-13T05:01:01.514Z,1023.54
2018-11-13T05:02:01.532Z,1023.54
2018-11-13T05:03:01.700Z,1023.51
2018-11-13T05:04:01.476Z,1023.56
2018-11-13T05:05:01.897Z,1023.58
2018-11-13T05:06:01.507Z,1023.63
2018-11-13T05:07:01.492Z,1023.67
2018-11-13T05:08:01.508Z,1023.66
2018-11-13T05:09:01.464Z,1023.61
2018-11-13T05:10:01.964Z,1023.61
2018-11-13T05:11:01.480Z,1023.57
2018-11-13T05:12:01.487Z,1023.53
2018-11-13T05:13:01.514Z,1023.49
2018-11-13T05:14:01.528Z,1023.48
2018-11-13T05:15:01.507Z,1023.49
2018-11-13T05:16:01.493Z,1023.51
2018-11-13T05:17:01.483Z,1023.54
2018-11-13T05:18:01.475Z,1023.56
2018-11-13T05:19:01.496Z,1023.63
2018-11-13T05:20:01.551Z,1023.58
2018-11-13T05:21:01.491Z,1023.56
2018-11-13T05:22:01.517Z,1023.57
2018-11-13T05:23:01.659Z,1023.59
2018-11-13T05:24:01.472Z,1023.57
2018-11-13T05:25:01.559Z,1023.58
2018-11-13T05:26:02.306Z,1023.59
2018-11-13T05:27:01.493Z,1023.58
2018-11-13T05:28:01.560Z,1023.64
2018-11-13T05:29:01.766Z,1023.67
2018-11-13T05:30:01.667Z,1023.72
2018-11-13T05:31:01.540Z,1023.75
2018-11-13T05:32:01.563Z,1023.8
2018-11-13T05:33:01.654Z,1023.8
2018-11-13T05:34:01.510Z,1023.87
2018-11-13T05:35:01.662Z,1023.93
2018-11-13T05:36:01.589Z,1023.98
2018-11-13T05:37:01.486Z,1024.01
2018-11-13T05:38:01.627Z,1024.06
2018-11-13T05:39:01.509Z,1024.05
2018-11-13T05:40:01.640Z,1024.1
2018-11-13T05:41:01.596Z,1024.09
2018-11-13T05:42:01.495Z,1024.11
2018-11-13T05:43:01.445Z,1024.16
2018-11-13T05:44:01.532Z,1024.16
2018-11-13T05:45:01.648Z,1024.15
2018-11-13T05:46:01.425Z,1024.23
2018-11-13T05:47:01.603Z,1024.21
2018-11-13T05:48:01.521Z,1024.19
2018-11-13T05:49:01.704Z,1024.2
2018-11-13T05:50:01.580Z,1024.19
2018-11-13T05:51:01.472Z,1024.18
2018-11-13T05:52:01.471Z,1024.14
2018-11-13T05:53:01.474Z,1024.16
2018-11-13T05:54:01.398Z,1024.14
2018-11-13T05:55:01.455Z,1024.18
2018-11-13T05:56:01.478Z,1024.22
2018-11-13T05:57:01.665Z,1024.21
2018-11-13T05:58:01.504Z,1024.19
2018-11-13T05:59:01.571Z,1024.28
2018-11-13T06:00:01.620Z,1024.24
2018-11-13T06:01:01.496Z,1024.26
2018-11-13T06:02:01.732Z,1024.29
2018-11-13T06:03:01.457Z,1024.33
2018-11-13T06:04:01.385Z,1024.33
2018-11-13T06:05:01.610Z,1024.36
2018-11-13T06:06:01.466Z,1024.41
2018-11-13T06:07:01.471Z,1024.42
2018-11-13T06:08:01.740Z,1024.37
2018-11-13T06:09:01.502Z,1024.42
2018-11-13T06:10:01.415Z,1024.44
2018-11-13T06:11:01.881Z,1024.45
2018-11-13T06:12:01.477Z,1024.43
2018-11-13T06:13:01.447Z,1024.36
2018-11-13T06:14:01.721Z,1024.37
2018-11-13T06:15:01.445Z,1024.36
2018-11-13T06:16:01.442Z,1024.42
2018-11-13T06:17:01.713Z,1024.35
2018-11-13T06:18:01.654Z,1024.39
2018-11-13T06:19:01.455Z,1024.38
2018-11-13T06:20:01.629Z,1024.48
2018-11-13T06:21:01.418Z,1024.5
2018-11-13T06:22:01.652Z,1024.57
2018-11-13T06:23:01.822Z,1024.59
2018-11-13T06:24:01.499Z,1024.67
2018-11-13T06:25:01.540Z,1024.78
2018-11-13T06:26:01.662Z,1024.77
2018-11-13T06:27:01.378Z,1024.82
2018-11-13T06:28:01.674Z,1024.85
2018-11-13T06:29:01.455Z,1024.85
2018-11-13T06:30:01.430Z,1024.8
2018-11-13T06:31:01.564Z,1024.76
2018-11-13T06:32:01.456Z,1024.85
2018-11-13T06:33:01.507Z,1024.83
2018-11-13T06:34:01.378Z,1024.83
2018-11-13T06:35:01.382Z,1024.9
2018-11-13T06:36:02.021Z,1024.96
2018-11-13T06:37:01.383Z,1024.97
2018-11-13T06:38:01.640Z,1025
2018-11-13T06:39:01.660Z,1025.03
2018-11-13T06:40:01.381Z,1025.09
2018-11-13T06:41:01.356Z,1025.11
2018-11-13T06:42:01.364Z,1025.12
2018-11-13T06:43:01.798Z,1025.12
2018-11-13T06:44:01.346Z,1025.16
2018-11-13T06:45:01.467Z,1025.17
2018-11-13T06:46:01.540Z,1025.2
2018-11-13T06:47:01.364Z,1025.22
2018-11-13T06:48:01.386Z,1025.32
2018-11-13T06:49:01.460Z,1025.38
2018-11-13T06:50:01.352Z,1025.4
2018-11-13T06:51:01.370Z,1025.4
2018-11-13T06:52:01.643Z,1025.39
2018-11-13T06:53:01.337Z,1025.38
2018-11-13T06:54:01.349Z,1025.36
2018-11-13T06:55:01.352Z,1025.38
2018-11-13T06:56:01.330Z,1025.4
2018-11-13T06:57:01.575Z,1025.41
2018-11-13T06:58:01.327Z,1025.39
2018-11-13T06:59:01.334Z,1025.38
2018-11-13T07:00:01.534Z,1025.41
2018-11-13T07:01:01.617Z,1025.4
2018-11-13T07:02:01.357Z,1025.51
2018-11-13T07:03:01.408Z,1025.5
2018-11-13T07:04:01.349Z,1025.56
2018-11-13T07:05:01.647Z,1025.54
2018-11-13T07:06:01.352Z,1025.62
2018-11-13T07:07:01.952Z,1025.62
2018-11-13T07:08:01.413Z,1025.62
2018-11-13T07:09:01.321Z,1025.62
2018-11-13T07:10:01.337Z,1025.68
2018-11-13T07:11:01.479Z,1025.7
2018-11-13T07:12:01.486Z,1025.66
2018-11-13T07:13:01.421Z,1025.65
2018-11-13T07:14:01.467Z,1025.65
2018-11-13T07:15:01.475Z,1025.71
2018-11-13T07:16:01.487Z,1025.71
2018-11-13T07:17:01.313Z,1025.72
2018-11-13T07:18:01.756Z,1025.71
2018-11-13T07:19:01.306Z,1025.71
2018-11-13T07:20:01.308Z,1025.72
2018-11-13T07:21:01.396Z,1025.73
2018-11-13T07:22:01.371Z,1025.68
2018-11-13T07:23:01.365Z,1025.76
2018-11-13T07:24:01.446Z,1025.75
2018-11-13T07:25:01.607Z,1025.74
2018-11-13T07:26:01.343Z,1025.77
2018-11-13T07:27:01.448Z,1025.82
2018-11-13T07:28:02.304Z,1025.76
2018-11-13T07:29:01.369Z,1025.76
2018-11-13T07:30:01.516Z,1025.73
2018-11-13T07:31:01.524Z,1025.65
2018-11-13T07:32:01.507Z,1025.6
2018-11-13T07:33:01.490Z,1025.52
2018-11-13T07:34:01.450Z,1025.46
2018-11-13T07:35:01.647Z,1025.41
2018-11-13T07:36:01.537Z,1025.29
2018-11-13T07:37:01.324Z,1025.24
2018-11-13T07:38:01.449Z,1025.23
2018-11-13T07:39:01.373Z,1025.12
2018-11-13T07:40:01.333Z,1025.14
2018-11-13T07:41:01.592Z,1025.1
2018-11-13T07:42:01.412Z,1025.17
2018-11-13T07:43:01.290Z,1025.14
2018-11-13T07:44:01.741Z,1025.2
2018-11-13T07:45:01.597Z,1025.2
2018-11-13T07:46:01.330Z,1025.21
2018-11-13T07:47:01.537Z,1025.14
2018-11-13T07:48:01.518Z,1025.13
2018-11-13T07:49:01.325Z,1025.18
2018-11-13T07:50:01.449Z,1025.2
2018-11-13T07:51:01.388Z,1025.23
2018-11-13T07:52:01.322Z,1025.34
2018-11-13T07:53:01.437Z,1025.42
2018-11-13T07:54:01.551Z,1025.38
2018-11-13T07:55:01.495Z,1025.41
2018-11-13T07:56:01.358Z,1025.44
2018-11-13T07:57:01.441Z,1025.4
2018-11-13T07:58:01.316Z,1025.37
2018-11-13T07:59:01.294Z,1025.38
2018-11-13T08:00:01.596Z,1025.31
2018-11-13T08:01:01.294Z,1025.18
2018-11-13T08:02:01.282Z,1025.13
2018-11-13T08:03:01.217Z,1025.11
2018-11-13T08:04:01.301Z,1025.03
2018-11-13T08:05:01.577Z,1024.99
2018-11-13T08:06:01.516Z,1025
2018-11-13T08:07:01.319Z,1025.01
2018-11-13T08:08:01.314Z,1025.1
2018-11-13T08:09:01.362Z,1025.31
2018-11-13T08:10:01.201Z,1025.48
2018-11-13T08:11:01.305Z,1025.62
2018-11-13T08:12:01.298Z,1025.77
2018-11-13T08:13:01.544Z,1025.86
2018-11-13T08:14:01.270Z,1025.94
2018-11-13T08:15:01.280Z,1026.01
2018-11-13T08:16:01.383Z,1026.1
2018-11-13T08:17:01.251Z,1026.08
2018-11-13T08:18:01.253Z,1026.15
2018-11-13T08:19:01.275Z,1026.16
2018-11-13T08:20:01.237Z,1026.15
2018-11-13T08:21:01.331Z,1026.2
2018-11-13T08:22:01.331Z,1026.22
2018-11-13T08:23:01.295Z,1026.24
2018-11-13T08:24:01.186Z,1026.23
2018-11-13T08:25:01.343Z,1026.21
2018-11-13T08:26:01.206Z,1026.23
2018-11-13T08:27:01.373Z,1026.24
2018-11-13T08:28:01.335Z,1026.2
2018-11-13T08:29:01.734Z,1026.14
2018-11-13T08:30:01.197Z,1026.18
2018-11-13T08:31:01.214Z,1026.23
2018-11-13T08:32:01.248Z,1026.28
2018-11-13T08:33:01.232Z,1026.29
2018-11-13T08:34:01.619Z,1026.3
2018-11-13T08:35:01.478Z,1026.36
2018-11-13T08:36:01.175Z,1026.42
2018-11-13T08:37:01.241Z,1026.44
2018-11-13T08:38:01.381Z,1026.51
2018-11-13T08:39:01.281Z,1026.51
2018-11-13T08:40:01.197Z,1026.51
2018-11-13T08:41:01.198Z,1026.52
2018-11-13T08:42:01.274Z,1026.48
2018-11-13T08:43:01.342Z,1026.44
2018-11-13T08:44:01.822Z,1026.41
2018-11-13T08:45:01.220Z,1026.43
2018-11-13T08:46:01.145Z,1026.45
2018-11-13T08:47:01.197Z,1026.42
2018-11-13T08:48:02.014Z,1026.37
2018-11-13T08:49:01.328Z,1026.37
2018-11-13T08:50:01.190Z,1026.38
2018-11-13T08:51:01.269Z,1026.51
2018-11-13T08:52:01.553Z,1026.52
2018-11-13T08:53:01.219Z,1026.65
2018-11-13T08:54:01.189Z,1026.71
2018-11-13T08:55:01.587Z,1026.8
2018-11-13T08:56:01.446Z,1026.87
2018-11-13T08:57:01.153Z,1026.87
2018-11-13T08:58:01.158Z,1026.86
2018-11-13T08:59:01.616Z,1026.84
2018-11-13T09:00:01.167Z,1026.79
2018-11-13T09:01:01.240Z,1026.74
2018-11-13T09:02:01.364Z,1026.75
2018-11-13T09:03:01.285Z,1026.83
2018-11-13T09:04:01.422Z,1026.91
2018-11-13T09:05:01.613Z,1027
2018-11-13T09:06:01.714Z,1027.02
2018-11-13T09:07:01.396Z,1027.02
2018-11-13T09:08:01.207Z,1027.08
2018-11-13T09:09:01.288Z,1027.02
2018-11-13T09:10:01.143Z,1027.07
2018-11-13T09:11:01.366Z,1027.03
2018-11-13T09:12:01.727Z,1027.03
2018-11-13T09:13:01.424Z,1026.98
2018-11-13T09:14:01.143Z,1027.02
2018-11-13T09:15:01.138Z,1026.97
2018-11-13T09:16:01.427Z,1027.02
2018-11-13T09:17:01.405Z,1027.03
2018-11-13T09:18:01.565Z,1027.1
2018-11-13T09:19:01.390Z,1027.06
2018-11-13T09:20:01.478Z,1027.09
2018-11-13T09:21:01.496Z,1027.08
2018-11-13T09:22:01.347Z,1027.1
2018-11-13T09:23:01.232Z,1027.17
2018-11-13T09:24:01.172Z,1027.2
2018-11-13T09:25:01.106Z,1027.36
2018-11-13T09:26:01.171Z,1027.41
2018-11-13T09:27:01.130Z,1027.42
2018-11-13T09:28:01.188Z,1027.38
2018-11-13T09:29:01.141Z,1027.39
2018-11-13T09:30:01.379Z,1027.31
2018-11-13T09:31:01.780Z,1027.3
2018-11-13T09:32:01.198Z,1027.35
2018-11-13T09:33:01.581Z,1027.45
2018-11-13T09:34:01.273Z,1027.53
2018-11-13T09:35:01.361Z,1027.61
2018-11-13T09:36:01.260Z,1027.61
2018-11-13T09:37:01.438Z,1027.67
2018-11-13T09:38:01.190Z,1027.65
2018-11-13T09:39:01.145Z,1027.69
2018-11-13T09:40:01.393Z,1027.65
2018-11-13T09:41:01.180Z,1027.62
2018-11-13T09:42:01.369Z,1027.66
2018-11-13T09:43:01.206Z,1027.73
2018-11-13T09:44:01.393Z,1027.7
2018-11-13T09:45:01.528Z,1027.66
2018-11-13T09:46:01.562Z,1027.63
2018-11-13T09:47:01.105Z,1027.61
2018-11-13T09:48:01.153Z,1027.58
2018-11-13T09:49:01.146Z,1027.58
2018-11-13T09:50:01.190Z,1027.52
2018-11-13T09:51:01.179Z,1027.64
2018-11-13T09:52:01.103Z,1027.69
2018-11-13T09:53:01.097Z,1027.78
2018-11-13T09:54:01.099Z,1027.79
2018-11-13T09:55:01.138Z,1027.72
2018-11-13T09:56:01.165Z,1027.71
2018-11-13T09:57:01.260Z,1027.77
2018-11-13T09:58:01.090Z,1027.75
2018-11-13T09:59:01.379Z,1027.77
2018-11-13T10:00:01.341Z,1027.76
2018-11-13T10:01:01.783Z,1027.79
2018-11-13T10:02:02.569Z,1027.75
2018-11-13T10:03:03.147Z,1027.85
2018-11-13T10:04:02.419Z,1027.8
2018-11-13T10:05:03.213Z,1027.74
2018-11-13T10:06:01.236Z,1027.7
2018-11-13T10:07:01.295Z,1027.77
2018-11-13T10:08:01.394Z,1027.81
2018-11-13T10:09:01.097Z,1027.81
2018-11-13T10:10:01.201Z,1027.82
2018-11-13T10:11:01.267Z,1027.8
2018-11-13T10:12:01.129Z,1027.88
2018-11-13T10:13:01.410Z,1027.87
2018-11-13T10:14:01.492Z,1027.86
2018-11-13T10:15:01.224Z,1027.8
2018-11-13T10:16:01.100Z,1027.89
2018-11-13T10:17:01.107Z,1027.82
2018-11-13T10:18:01.492Z,1027.89
2018-11-13T10:19:01.276Z,1027.89
2018-11-13T10:20:01.060Z,1027.96
2018-11-13T10:21:01.089Z,1027.9
2018-11-13T10:22:01.169Z,1027.91
2018-11-13T10:23:01.355Z,1027.95
2018-11-13T10:24:01.183Z,1027.98
2018-11-13T10:25:01.208Z,1027.96
2018-11-13T10:26:01.056Z,1027.95
2018-11-13T10:27:01.565Z,1027.87
2018-11-13T10:28:01.642Z,1027.92
2018-11-13T10:29:01.152Z,1027.92
2018-11-13T10:30:01.502Z,1028.02
2018-11-13T10:31:01.133Z,1028.01
2018-11-13T10:32:01.051Z,1028.01
2018-11-13T10:33:01.324Z,1028.05
2018-11-13T10:34:01.474Z,1028.02
2018-11-13T10:35:01.175Z,1028.04
2018-11-13T10:36:01.140Z,1028.1
2018-11-13T10:37:01.868Z,1028.12
2018-11-13T10:38:01.183Z,1028.12
2018-11-13T10:39:01.372Z,1028.06
2018-11-13T10:40:01.425Z,1028.06
2018-11-13T10:41:01.317Z,1028.1
2018-11-13T10:42:01.063Z,1028.08
2018-11-13T10:43:01.116Z,1028.05
2018-11-13T10:44:01.078Z,1028.06
2018-11-13T10:45:01.048Z,1028.06
2018-11-13T10:46:01.076Z,1028.05
2018-11-13T10:47:01.115Z,1027.97
2018-11-13T10:48:01.088Z,1028.01
2018-11-13T10:49:01.242Z,1027.99
2018-11-13T10:50:01.309Z,1028.01
2018-11-13T10:51:01.160Z,1027.99
2018-11-13T10:52:01.190Z,1028.06
2018-11-13T10:53:01.056Z,1028.05
2018-11-13T10:54:01.053Z,1028.08
2018-11-13T10:55:01.141Z,1028.08
2018-11-13T10:56:01.102Z,1028.11
2018-11-13T10:57:01.594Z,1028.13
2018-11-13T10:58:01.146Z,1028.08
2018-11-13T10:59:01.040Z,1028.12
2018-11-13T11:00:01.142Z,1028.08
2018-11-13T11:01:01.299Z,1028.09
2018-11-13T11:02:01.318Z,1028.08
2018-11-13T11:03:01.376Z,1028.12
2018-11-13T11:04:01.238Z,1028.08
2018-11-13T11:05:01.138Z,1028.04
2018-11-13T11:07:01.374Z,1028.08
2018-11-13T11:08:01.050Z,1028.06
2018-11-13T11:09:00.995Z,1028.01
2018-11-13T11:10:01.467Z,1028.08
2018-11-13T11:11:01.290Z,1028.06
2018-11-13T11:12:01.050Z,1028.07
2018-11-13T11:13:01.476Z,1028.09
2018-11-13T11:14:02.029Z,1028.08
2018-11-13T11:15:01.074Z,1028.05
2018-11-13T11:16:01.277Z,1028.08
2018-11-13T11:17:01.085Z,1028.09
2018-11-13T11:18:01.244Z,1028.16
2018-11-13T11:19:01.382Z,1028.11
2018-11-13T11:20:00.987Z,1028.19
2018-11-13T11:21:01.044Z,1028.14
2018-11-13T11:22:01.018Z,1028.17
2018-11-13T11:23:01.048Z,1028.2
2018-11-13T11:24:01.089Z,1028.2
2018-11-13T11:25:01.117Z,1028.19
2018-11-13T11:26:01.047Z,1028.19
2018-11-13T11:27:00.980Z,1028.16
2018-11-13T11:28:01.085Z,1028.17
2018-11-13T11:29:01.046Z,1028.15
2018-11-13T11:30:01.035Z,1028.13
2018-11-13T11:31:01.211Z,1028.11
2018-11-13T11:32:00.948Z,1028.12
2018-11-13T11:33:01.036Z,1028.12
2018-11-13T11:34:01.024Z,1028.13
2018-11-13T11:35:01.234Z,1028.08
2018-11-13T11:36:01.262Z,1028.1
2018-11-13T11:37:00.996Z,1028.17
2018-11-13T11:38:01.026Z,1028.2
2018-11-13T11:39:01.593Z,1028.23
2018-11-13T11:40:00.964Z,1028.24
2018-11-13T11:41:01.042Z,1028.29
2018-11-13T11:42:00.944Z,1028.28
2018-11-13T11:43:01.055Z,1028.27
2018-11-13T11:44:00.934Z,1028.3
2018-11-13T11:45:01.422Z,1028.24
2018-11-13T11:47:01.523Z,1028.2
2018-11-13T11:48:00.930Z,1028.18
2018-11-13T11:49:01.065Z,1028.23
2018-11-13T11:50:01.090Z,1028.24
2018-11-13T11:51:01.490Z,1028.29
2018-11-13T11:52:01.601Z,1028.29
2018-11-13T11:53:00.950Z,1028.32
2018-11-13T11:54:01.266Z,1028.29
2018-11-13T11:55:01.180Z,1028.29
2018-11-13T11:56:01.754Z,1028.32
2018-11-13T11:57:01.071Z,1028.35
2018-11-13T11:58:01.337Z,1028.36
2018-11-13T11:59:01.135Z,1028.32
2018-11-13T12:00:01.311Z,1028.32
2018-11-13T12:01:01.301Z,1028.33
2018-11-13T12:02:00.982Z,1028.33
2018-11-13T12:03:01.115Z,1028.32
2018-11-13T12:04:01.293Z,1028.39
2018-11-13T12:05:01.025Z,1028.36
2018-11-13T12:06:00.945Z,1028.29
2018-11-13T12:07:00.917Z,1028.38
2018-11-13T12:08:00.987Z,1028.35
2018-11-13T12:09:00.994Z,1028.37
2018-11-13T12:10:01.267Z,1028.4